KDHT/DHT METAR and TAF weather

Enter ICAO airport designator
Station Type Date Time Source
KDHT METAR 2023/01/30 10:36 UTC NOAA

KDHT 301036Z AUTO 02011KT 5SM HZ OVC010 M13/M17 A3020 RMK AO2 SNE35 P0000 T11331167


Station Type Date Time Source
KDHT Decoded METAR 2023/01/30 10:36 UTC NOAA

DALHART MUNICIPAL AIRPORT, TX, United States (KDHT) 36-01N 102-33W 1217M
Jan 30, 2023 - 05:36 AM EST / 2023.01.30 1036 UTC
Wind: from the NNE (020 degrees) at 13 MPH (11 KT):0
Visibility: 5 mile(s):0
Sky conditions: overcast
Weather: haze
Precipitation last hour: A trace
Temperature: 8.1 F (-13.3 C)
Windchill: -7 F (-22 C):2
Dew Point: 1.9 F (-16.7 C)
Relative Humidity: 75%
Pressure (altimeter): 30.2 in. Hg (1022 hPa)
ob: KDHT 301036Z AUTO 02011KT 5SM HZ OVC010 M13/M17 A3020 RMK AO2 SNE35 P0000 T11331167
cycle: 10

Station Type Date Time Source
KDHT TAF 2023/01/30 06:22 UTC NOAA

TAF KDHT 300520Z 3006/3106 06011KT 6SM -SN BKN007
FM301800 15007KT P6SM BKN015
FM302100 16009KT P6SM BKN025
FM302200 14010KT P6SM SCT025
FM310500 07008KT P6SM BKN015

Example: see airport list